sensor_id;sensor_type;location;lat;lon;timestamp;P1;durP1;ratioP1;P2;durP2;ratioP2
20207;SDS011;10263;48.716;8.760;2023-05-02T00:01:25;14.00;;;4.53;;
20207;SDS011;10263;48.716;8.760;2023-05-02T00:03:53;20.43;;;4.10;;
20207;SDS011;10263;48.716;8.760;2023-05-02T00:06:20;20.03;;;4.27;;
20207;SDS011;10263;48.716;8.760;2023-05-02T00:08:47;29.43;;;4.83;;
20207;SDS011;10263;48.716;8.760;2023-05-02T00:11:14;13.77;;;4.40;;
20207;SDS011;10263;48.716;8.760;2023-05-02T00:13:41;12.87;;;4.37;;
20207;SDS011;10263;48.716;8.760;2023-05-02T00:16:08;7.47;;;4.07;;
20207;SDS011;10263;48.716;8.760;2023-05-02T00:18:36;6.63;;;4.03;;
20207;SDS011;10263;48.716;8.760;2023-05-02T00:21:04;16.30;;;4.23;;
20207;SDS011;10263;48.716;8.760;2023-05-02T00:23:31;5.37;;;3.67;;
20207;SDS011;10263;48.716;8.760;2023-05-02T00:25:58;12.23;;;3.63;;
20207;SDS011;10263;48.716;8.760;2023-05-02T00:28:25;6.27;;;3.50;;
20207;SDS011;10263;48.716;8.760;2023-05-02T00:30:52;8.97;;;3.63;;
20207;SDS011;10263;48.716;8.760;2023-05-02T00:33:18;9.17;;;4.00;;
20207;SDS011;10263;48.716;8.760;2023-05-02T00:35:45;9.43;;;4.33;;
20207;SDS011;10263;48.716;8.760;2023-05-02T00:38:13;23.00;;;5.27;;
20207;SDS011;10263;48.716;8.760;2023-05-02T00:40:44;30.17;;;4.63;;
20207;SDS011;10263;48.716;8.760;2023-05-02T00:43:11;124.17;;;8.83;;
20207;SDS011;10263;48.716;8.760;2023-05-02T00:45:38;121.87;;;9.10;;
20207;SDS011;10263;48.716;8.760;2023-05-02T00:48:07;60.90;;;7.37;;
20207;SDS011;10263;48.716;8.760;2023-05-02T00:50:36;132.57;;;9.43;;
20207;SDS011;10263;48.716;8.760;2023-05-02T00:53:04;101.27;;;8.63;;
20207;SDS011;10263;48.716;8.760;2023-05-02T00:55:33;60.20;;;5.77;;
20207;SDS011;10263;48.716;8.760;2023-05-02T00:58:01;79.63;;;7.80;;
20207;SDS011;10263;48.716;8.760;2023-05-02T01:00:35;111.60;;;9.50;;
20207;SDS011;10263;48.716;8.760;2023-05-02T01:03:09;98.33;;;7.87;;
20207;SDS011;10263;48.716;8.760;2023-05-02T01:05:43;94.37;;;6.97;;
20207;SDS011;10263;48.716;8.760;2023-05-02T01:08:18;67.73;;;5.73;;
20207;SDS011;10263;48.716;8.760;2023-05-02T01:10:55;73.80;;;7.33;;
20207;SDS011;10263;48.716;8.760;2023-05-02T01:13:32;53.80;;;6.30;;
20207;SDS011;10263;48.716;8.760;2023-05-02T01:16:00;61.53;;;6.93;;
20207;SDS011;10263;48.716;8.760;2023-05-02T01:18:29;19.93;;;5.23;;
20207;SDS011;10263;48.716;8.760;2023-05-02T01:21:02;38.17;;;6.10;;
20207;SDS011;10263;48.716;8.760;2023-05-02T01:23:34;69.27;;;7.10;;
20207;SDS011;10263;48.716;8.760;2023-05-02T01:26:13;68.23;;;7.23;;
20207;SDS011;10263;48.716;8.760;2023-05-02T01:28:49;46.00;;;5.63;;
20207;SDS011;10263;48.716;8.760;2023-05-02T01:31:22;90.07;;;8.17;;
20207;SDS011;10263;48.716;8.760;2023-05-02T01:33:51;82.77;;;10.70;;
20207;SDS011;10263;48.716;8.760;2023-05-02T01:36:20;83.90;;;7.33;;
20207;SDS011;10263;48.716;8.760;2023-05-02T01:38:48;106.17;;;8.73;;
20207;SDS011;10263;48.716;8.760;2023-05-02T01:41:15;55.80;;;7.37;;
20207;SDS011;10263;48.716;8.760;2023-05-02T01:43:43;59.37;;;7.43;;
20207;SDS011;10263;48.716;8.760;2023-05-02T01:46:13;75.87;;;6.93;;
20207;SDS011;10263;48.716;8.760;2023-05-02T01:48:40;59.97;;;7.10;;
20207;SDS011;10263;48.716;8.760;2023-05-02T01:51:10;47.00;;;7.10;;
20207;SDS011;10263;48.716;8.760;2023-05-02T01:53:38;35.77;;;6.37;;
20207;SDS011;10263;48.716;8.760;2023-05-02T01:56:05;59.87;;;7.20;;
20207;SDS011;10263;48.716;8.760;2023-05-02T01:58:33;52.03;;;6.80;;
20207;SDS011;10263;48.716;8.760;2023-05-02T02:01:01;32.40;;;6.57;;
20207;SDS011;10263;48.716;8.760;2023-05-02T02:03:30;62.77;;;8.13;;
20207;SDS011;10263;48.716;8.760;2023-05-02T02:05:58;81.27;;;6.83;;
20207;SDS011;10263;48.716;8.760;2023-05-02T02:08:26;65.90;;;7.50;;
20207;SDS011;10263;48.716;8.760;2023-05-02T02:10:56;59.27;;;8.63;;
20207;SDS011;10263;48.716;8.760;2023-05-02T02:13:27;83.50;;;9.33;;
20207;SDS011;10263;48.716;8.760;2023-05-02T02:15:58;62.40;;;8.53;;
20207;SDS011;10263;48.716;8.760;2023-05-02T02:18:27;97.33;;;9.03;;
20207;SDS011;10263;48.716;8.760;2023-05-02T02:20:56;50.63;;;6.97;;
20207;SDS011;10263;48.716;8.760;2023-05-02T02:23:25;76.07;;;8.40;;
20207;SDS011;10263;48.716;8.760;2023-05-02T02:25:54;53.40;;;7.50;;
20207;SDS011;10263;48.716;8.760;2023-05-02T02:28:22;59.80;;;7.83;;
20207;SDS011;10263;48.716;8.760;2023-05-02T02:30:49;71.57;;;7.77;;
20207;SDS011;10263;48.716;8.760;2023-05-02T02:33:16;49.77;;;7.57;;
20207;SDS011;10263;48.716;8.760;2023-05-02T02:35:47;78.40;;;9.70;;
20207;SDS011;10263;48.716;8.760;2023-05-02T02:38:22;82.57;;;8.33;;
20207;SDS011;10263;48.716;8.760;2023-05-02T02:40:56;56.70;;;7.60;;
20207;SDS011;10263;48.716;8.760;2023-05-02T02:43:30;26.23;;;5.97;;
20207;SDS011;10263;48.716;8.760;2023-05-02T02:46:01;44.70;;;7.90;;
20207;SDS011;10263;48.716;8.760;2023-05-02T02:48:39;97.77;;;10.23;;
20207;SDS011;10263;48.716;8.760;2023-05-02T02:51:18;97.83;;;9.67;;
20207;SDS011;10263;48.716;8.760;2023-05-02T02:53:56;85.60;;;10.03;;
20207;SDS011;10263;48.716;8.760;2023-05-02T02:56:27;21.87;;;5.97;;
20207;SDS011;10263;48.716;8.760;2023-05-02T02:58:59;18.60;;;5.27;;
20207;SDS011;10263;48.716;8.760;2023-05-02T03:01:30;21.33;;;5.07;;
20207;SDS011;10263;48.716;8.760;2023-05-02T03:03:58;10.90;;;4.87;;
20207;SDS011;10263;48.716;8.760;2023-05-02T03:06:26;26.17;;;5.37;;
20207;SDS011;10263;48.716;8.760;2023-05-02T03:08:56;14.03;;;5.07;;
20207;SDS011;10263;48.716;8.760;2023-05-02T03:11:27;11.07;;;4.30;;
20207;SDS011;10263;48.716;8.760;2023-05-02T03:13:56;9.10;;;5.10;;
20207;SDS011;10263;48.716;8.760;2023-05-02T03:16:28;9.53;;;5.13;;
20207;SDS011;10263;48.716;8.760;2023-05-02T03:18:59;24.53;;;5.63;;
20207;SDS011;10263;48.716;8.760;2023-05-02T03:21:26;23.10;;;4.47;;
20207;SDS011;10263;48.716;8.760;2023-05-02T03:23:57;9.60;;;5.17;;
20207;SDS011;10263;48.716;8.760;2023-05-02T03:26:25;11.57;;;5.33;;
20207;SDS011;10263;48.716;8.760;2023-05-02T03:28:52;16.57;;;5.60;;
20207;SDS011;10263;48.716;8.760;2023-05-02T03:31:25;6.13;;;5.43;;
20207;SDS011;10263;48.716;8.760;2023-05-02T03:33:53;11.63;;;5.40;;
20207;SDS011;10263;48.716;8.760;2023-05-02T03:36:21;10.77;;;5.70;;
20207;SDS011;10263;48.716;8.760;2023-05-02T03:38:52;15.57;;;5.73;;
20207;SDS011;10263;48.716;8.760;2023-05-02T03:41:20;18.50;;;5.80;;
20207;SDS011;10263;48.716;8.760;2023-05-02T03:43:54;7.27;;;5.63;;
20207;SDS011;10263;48.716;8.760;2023-05-02T03:46:23;14.40;;;5.53;;
20207;SDS011;10263;48.716;8.760;2023-05-02T03:48:50;7.40;;;5.37;;
20207;SDS011;10263;48.716;8.760;2023-05-02T03:51:17;6.33;;;4.50;;
20207;SDS011;10263;48.716;8.760;2023-05-02T03:53:48;9.63;;;5.33;;
20207;SDS011;10263;48.716;8.760;2023-05-02T03:56:16;5.33;;;4.70;;
20207;SDS011;10263;48.716;8.760;2023-05-02T03:58:52;10.37;;;5.67;;
20207;SDS011;10263;48.716;8.760;2023-05-02T04:01:22;6.97;;;5.00;;
20207;SDS011;10263;48.716;8.760;2023-05-02T04:03:50;5.30;;;4.53;;
20207;SDS011;10263;48.716;8.760;2023-05-02T04:06:20;5.53;;;4.40;;
20207;SDS011;10263;48.716;8.760;2023-05-02T04:08:53;7.57;;;5.17;;
20207;SDS011;10263;48.716;8.760;2023-05-02T04:11:20;7.83;;;4.77;;
20207;SDS011;10263;48.716;8.760;2023-05-02T04:13:48;6.13;;;5.00;;
20207;SDS011;10263;48.716;8.760;2023-05-02T04:16:17;8.17;;;5.63;;
20207;SDS011;10263;48.716;8.760;2023-05-02T04:18:44;5.67;;;5.07;;
20207;SDS011;10263;48.716;8.760;2023-05-02T04:21:11;7.17;;;4.97;;
20207;SDS011;10263;48.716;8.760;2023-05-02T04:23:38;8.40;;;5.30;;
20207;SDS011;10263;48.716;8.760;2023-05-02T04:26:05;8.97;;;6.00;;
20207;SDS011;10263;48.716;8.760;2023-05-02T04:28:42;6.67;;;5.93;;
20207;SDS011;10263;48.716;8.760;2023-05-02T04:31:12;6.60;;;5.60;;
20207;SDS011;10263;48.716;8.760;2023-05-02T04:33:41;8.30;;;6.43;;
20207;SDS011;10263;48.716;8.760;2023-05-02T04:36:09;7.30;;;5.70;;
20207;SDS011;10263;48.716;8.760;2023-05-02T04:38:38;6.47;;;5.70;;
20207;SDS011;10263;48.716;8.760;2023-05-02T04:41:05;7.33;;;6.07;;
20207;SDS011;10263;48.716;8.760;2023-05-02T04:43:38;6.70;;;5.67;;
20207;SDS011;10263;48.716;8.760;2023-05-02T04:46:06;5.97;;;5.37;;
20207;SDS011;10263;48.716;8.760;2023-05-02T04:48:36;6.27;;;5.67;;
20207;SDS011;10263;48.716;8.760;2023-05-02T04:51:07;9.60;;;5.63;;
20207;SDS011;10263;48.716;8.760;2023-05-02T04:53:34;6.90;;;6.30;;
20207;SDS011;10263;48.716;8.760;2023-05-02T04:56:02;6.20;;;5.60;;
20207;SDS011;10263;48.716;8.760;2023-05-02T04:58:32;7.97;;;5.60;;
20207;SDS011;10263;48.716;8.760;2023-05-02T05:01:02;16.63;;;6.20;;
20207;SDS011;10263;48.716;8.760;2023-05-02T05:03:30;7.37;;;6.17;;
20207;SDS011;10263;48.716;8.760;2023-05-02T05:05:57;8.47;;;5.90;;
20207;SDS011;10263;48.716;8.760;2023-05-02T05:08:27;6.33;;;5.73;;
20207;SDS011;10263;48.716;8.760;2023-05-02T05:10:55;6.20;;;5.60;;
20207;SDS011;10263;48.716;8.760;2023-05-02T05:13:23;7.23;;;5.87;;
20207;SDS011;10263;48.716;8.760;2023-05-02T05:15:50;7.77;;;6.33;;
20207;SDS011;10263;48.716;8.760;2023-05-02T05:18:20;7.80;;;7.00;;
20207;SDS011;10263;48.716;8.760;2023-05-02T05:20:47;8.07;;;7.27;;
20207;SDS011;10263;48.716;8.760;2023-05-02T05:23:14;9.03;;;8.13;;
20207;SDS011;10263;48.716;8.760;2023-05-02T05:25:44;10.00;;;8.83;;
20207;SDS011;10263;48.716;8.760;2023-05-02T05:28:12;9.03;;;8.07;;
20207;SDS011;10263;48.716;8.760;2023-05-02T05:30:39;10.30;;;8.00;;
20207;SDS011;10263;48.716;8.760;2023-05-02T05:33:08;9.60;;;8.60;;
20207;SDS011;10263;48.716;8.760;2023-05-02T05:35:36;7.80;;;7.10;;
20207;SDS011;10263;48.716;8.760;2023-05-02T05:38:03;7.07;;;6.10;;
20207;SDS011;10263;48.716;8.760;2023-05-02T05:40:32;13.10;;;6.73;;
20207;SDS011;10263;48.716;8.760;2023-05-02T05:43:01;7.07;;;6.37;;
20207;SDS011;10263;48.716;8.760;2023-05-02T05:45:32;8.97;;;6.90;;
20207;SDS011;10263;48.716;8.760;2023-05-02T05:47:59;6.80;;;6.10;;
20207;SDS011;10263;48.716;8.760;2023-05-02T05:50:30;9.40;;;6.07;;
20207;SDS011;10263;48.716;8.760;2023-05-02T05:52:56;7.80;;;6.37;;
20207;SDS011;10263;48.716;8.760;2023-05-02T05:55:24;7.33;;;5.70;;
20207;SDS011;10263;48.716;8.760;2023-05-02T05:57:53;6.47;;;5.87;;
20207;SDS011;10263;48.716;8.760;2023-05-02T06:00:21;6.07;;;5.47;;
20207;SDS011;10263;48.716;8.760;2023-05-02T06:02:50;6.40;;;5.80;;
20207;SDS011;10263;48.716;8.760;2023-05-02T06:05:25;6.40;;;5.77;;
20207;SDS011;10263;48.716;8.760;2023-05-02T06:07:52;6.30;;;5.70;;
20207;SDS011;10263;48.716;8.760;2023-05-02T06:10:19;6.37;;;5.70;;
20207;SDS011;10263;48.716;8.760;2023-05-02T06:12:46;10.43;;;6.57;;
20207;SDS011;10263;48.716;8.760;2023-05-02T06:15:14;7.03;;;6.37;;
20207;SDS011;10263;48.716;8.760;2023-05-02T06:17:42;7.33;;;6.60;;
20207;SDS011;10263;48.716;8.760;2023-05-02T06:20:09;8.10;;;7.30;;
20207;SDS011;10263;48.716;8.760;2023-05-02T06:22:37;7.20;;;6.57;;
20207;SDS011;10263;48.716;8.760;2023-05-02T06:25:05;8.37;;;7.53;;
20207;SDS011;10263;48.716;8.760;2023-05-02T06:27:32;9.40;;;8.07;;
20207;SDS011;10263;48.716;8.760;2023-05-02T06:29:59;9.93;;;7.30;;
20207;SDS011;10263;48.716;8.760;2023-05-02T06:32:28;8.43;;;7.63;;
20207;SDS011;10263;48.716;8.760;2023-05-02T06:34:57;11.47;;;9.50;;
20207;SDS011;10263;48.716;8.760;2023-05-02T06:37:24;12.67;;;11.37;;
20207;SDS011;10263;48.716;8.760;2023-05-02T06:39:50;12.67;;;11.37;;
20207;SDS011;10263;48.716;8.760;2023-05-02T06:42:17;13.27;;;11.73;;
20207;SDS011;10263;48.716;8.760;2023-05-02T06:44:44;14.43;;;11.40;;
20207;SDS011;10263;48.716;8.760;2023-05-02T06:47:11;12.53;;;11.23;;
20207;SDS011;10263;48.716;8.760;2023-05-02T06:49:38;13.70;;;11.03;;
20207;SDS011;10263;48.716;8.760;2023-05-02T06:52:06;12.33;;;11.00;;
20207;SDS011;10263;48.716;8.760;2023-05-02T06:54:32;12.77;;;10.90;;
20207;SDS011;10263;48.716;8.760;2023-05-02T06:56:59;13.23;;;11.67;;
20207;SDS011;10263;48.716;8.760;2023-05-02T06:59:26;13.30;;;11.60;;
20207;SDS011;10263;48.716;8.760;2023-05-02T07:01:53;15.90;;;13.23;;
20207;SDS011;10263;48.716;8.760;2023-05-02T07:04:20;16.00;;;13.40;;
20207;SDS011;10263;48.716;8.760;2023-05-02T07:06:47;14.47;;;12.97;;
20207;SDS011;10263;48.716;8.760;2023-05-02T07:09:15;15.77;;;13.17;;
20207;SDS011;10263;48.716;8.760;2023-05-02T07:11:42;16.33;;;13.87;;
20207;SDS011;10263;48.716;8.760;2023-05-02T07:14:09;16.07;;;14.37;;
20207;SDS011;10263;48.716;8.760;2023-05-02T07:16:36;18.57;;;15.67;;
20207;SDS011;10263;48.716;8.760;2023-05-02T07:19:03;16.97;;;14.30;;
20207;SDS011;10263;48.716;8.760;2023-05-02T07:21:30;17.07;;;14.80;;
20207;SDS011;10263;48.716;8.760;2023-05-02T07:23:57;17.60;;;14.90;;
20207;SDS011;10263;48.716;8.760;2023-05-02T07:26:26;18.73;;;15.33;;
20207;SDS011;10263;48.716;8.760;2023-05-02T07:28:53;17.83;;;16.00;;
20207;SDS011;10263;48.716;8.760;2023-05-02T07:31:20;18.20;;;16.20;;
20207;SDS011;10263;48.716;8.760;2023-05-02T07:33:47;19.67;;;16.47;;
20207;SDS011;10263;48.716;8.760;2023-05-02T07:36:13;17.90;;;16.00;;
20207;SDS011;10263;48.716;8.760;2023-05-02T07:38:42;18.13;;;16.23;;
20207;SDS011;10263;48.716;8.760;2023-05-02T07:41:08;18.50;;;16.50;;
20207;SDS011;10263;48.716;8.760;2023-05-02T07:43:37;19.27;;;17.10;;
20207;SDS011;10263;48.716;8.760;2023-05-02T07:46:04;18.40;;;16.50;;
20207;SDS011;10263;48.716;8.760;2023-05-02T07:48:31;22.03;;;18.57;;
20207;SDS011;10263;48.716;8.760;2023-05-02T07:51:04;20.77;;;18.57;;
20207;SDS011;10263;48.716;8.760;2023-05-02T07:53:31;23.33;;;19.87;;
20207;SDS011;10263;48.716;8.760;2023-05-02T07:55:59;24.93;;;22.00;;
20207;SDS011;10263;48.716;8.760;2023-05-02T07:58:25;25.10;;;21.67;;
20207;SDS011;10263;48.716;8.760;2023-05-02T08:00:54;26.03;;;21.70;;
20207;SDS011;10263;48.716;8.760;2023-05-02T08:03:21;25.13;;;20.90;;
20207;SDS011;10263;48.716;8.760;2023-05-02T08:05:48;26.60;;;23.20;;
20207;SDS011;10263;48.716;8.760;2023-05-02T08:08:14;27.20;;;22.83;;
20207;SDS011;10263;48.716;8.760;2023-05-02T08:10:41;26.93;;;23.00;;
20207;SDS011;10263;48.716;8.760;2023-05-02T08:13:08;25.33;;;21.90;;
20207;SDS011;10263;48.716;8.760;2023-05-02T08:15:35;25.77;;;22.93;;
20207;SDS011;10263;48.716;8.760;2023-05-02T08:18:03;27.10;;;22.63;;
20207;SDS011;10263;48.716;8.760;2023-05-02T08:20:30;25.30;;;22.17;;
20207;SDS011;10263;48.716;8.760;2023-05-02T08:22:57;24.87;;;22.17;;
20207;SDS011;10263;48.716;8.760;2023-05-02T08:25:24;24.67;;;20.50;;
20207;SDS011;10263;48.716;8.760;2023-05-02T08:27:51;22.77;;;20.30;;
20207;SDS011;10263;48.716;8.760;2023-05-02T08:30:18;24.27;;;21.00;;
20207;SDS011;10263;48.716;8.760;2023-05-02T08:32:45;24.40;;;20.03;;
20207;SDS011;10263;48.716;8.760;2023-05-02T08:35:13;22.52;;;19.73;;
20207;SDS011;10263;48.716;8.760;2023-05-02T08:37:40;23.50;;;19.60;;
20207;SDS011;10263;48.716;8.760;2023-05-02T08:40:09;23.83;;;21.27;;
20207;SDS011;10263;48.716;8.760;2023-05-02T08:42:37;25.27;;;21.53;;
20207;SDS011;10263;48.716;8.760;2023-05-02T08:45:08;21.92;;;19.25;;
20207;SDS011;10263;48.716;8.760;2023-05-02T08:47:37;21.95;;;19.63;;
20207;SDS011;10263;48.716;8.760;2023-05-02T08:50:05;24.05;;;20.70;;
20207;SDS011;10263;48.716;8.760;2023-05-02T08:52:36;24.33;;;21.83;;
20207;SDS011;10263;48.716;8.760;2023-05-02T08:55:03;22.58;;;20.17;;
20207;SDS011;10263;48.716;8.760;2023-05-02T08:57:31;23.98;;;21.38;;
20207;SDS011;10263;48.716;8.760;2023-05-02T08:59:58;23.42;;;20.52;;
20207;SDS011;10263;48.716;8.760;2023-05-02T09:05:18;22.10;;;19.70;;
20207;SDS011;10263;48.716;8.760;2023-05-02T09:07:50;23.25;;;19.75;;
20207;SDS011;10263;48.716;8.760;2023-05-02T09:10:17;21.77;;;19.45;;
20207;SDS011;10263;48.716;8.760;2023-05-02T09:12:44;21.95;;;18.88;;
20207;SDS011;10263;48.716;8.760;2023-05-02T09:15:11;21.33;;;19.13;;
20207;SDS011;10263;48.716;8.760;2023-05-02T09:17:40;23.67;;;19.77;;
20207;SDS011;10263;48.716;8.760;2023-05-02T09:20:08;20.75;;;18.20;;
20207;SDS011;10263;48.716;8.760;2023-05-02T09:22:36;20.33;;;18.15;;
20207;SDS011;10263;48.716;8.760;2023-05-02T09:25:05;19.73;;;17.73;;
20207;SDS011;10263;48.716;8.760;2023-05-02T09:27:48;23.00;;;17.92;;
20207;SDS011;10263;48.716;8.760;2023-05-02T09:30:19;20.20;;;18.13;;
20207;SDS011;10263;48.716;8.760;2023-05-02T09:32:48;19.90;;;17.70;;
20207;SDS011;10263;48.716;8.760;2023-05-02T09:35:16;20.70;;;18.60;;
20207;SDS011;10263;48.716;8.760;2023-05-02T09:37:50;19.13;;;16.98;;
20207;SDS011;10263;48.716;8.760;2023-05-02T09:40:20;18.88;;;16.98;;
20207;SDS011;10263;48.716;8.760;2023-05-02T09:42:47;16.23;;;14.55;;
20207;SDS011;10263;48.716;8.760;2023-05-02T09:45:20;17.52;;;15.40;;
20207;SDS011;10263;48.716;8.760;2023-05-02T09:47:49;15.27;;;13.77;;
20207;SDS011;10263;48.716;8.760;2023-05-02T09:50:31;14.90;;;13.25;;
20207;SDS011;10263;48.716;8.760;2023-05-02T09:53:00;14.98;;;12.63;;
20207;SDS011;10263;48.716;8.760;2023-05-02T09:55:29;14.75;;;13.25;;
20207;SDS011;10263;48.716;8.760;2023-05-02T09:57:56;15.00;;;13.23;;
20207;SDS011;10263;48.716;8.760;2023-05-02T10:00:36;14.70;;;13.23;;
20207;SDS011;10263;48.716;8.760;2023-05-02T10:03:05;13.45;;;12.10;;
20207;SDS011;10263;48.716;8.760;2023-05-02T10:05:32;13.90;;;12.60;;
20207;SDS011;10263;48.716;8.760;2023-05-02T10:08:02;15.00;;;12.73;;
20207;SDS011;10263;48.716;8.760;2023-05-02T10:10:32;13.80;;;12.40;;
20207;SDS011;10263;48.716;8.760;2023-05-02T10:13:01;12.88;;;11.68;;
20207;SDS011;10263;48.716;8.760;2023-05-02T10:15:29;11.95;;;10.85;;
20207;SDS011;10263;48.716;8.760;2023-05-02T10:17:58;12.80;;;11.45;;
20207;SDS011;10263;48.716;8.760;2023-05-02T10:20:29;13.15;;;11.75;;
20207;SDS011;10263;48.716;8.760;2023-05-02T10:22:58;12.35;;;10.27;;
20207;SDS011;10263;48.716;8.760;2023-05-02T10:25:26;11.38;;;10.20;;
20207;SDS011;10263;48.716;8.760;2023-05-02T10:27:55;12.20;;;11.00;;
20207;SDS011;10263;48.716;8.760;2023-05-02T10:30:23;11.40;;;10.30;;
20207;SDS011;10263;48.716;8.760;2023-05-02T10:32:51;11.35;;;10.25;;
20207;SDS011;10263;48.716;8.760;2023-05-02T10:35:18;11.98;;;10.88;;
20207;SDS011;10263;48.716;8.760;2023-05-02T10:37:46;11.27;;;10.18;;
20207;SDS011;10263;48.716;8.760;2023-05-02T10:40:14;11.05;;;9.93;;
20207;SDS011;10263;48.716;8.760;2023-05-02T10:42:42;13.68;;;11.32;;
20207;SDS011;10263;48.716;8.760;2023-05-02T10:45:28;12.18;;;10.80;;
20207;SDS011;10263;48.716;8.760;2023-05-02T10:48:12;11.73;;;10.52;;
20207;SDS011;10263;48.716;8.760;2023-05-02T10:50:43;11.73;;;10.63;;
20207;SDS011;10263;48.716;8.760;2023-05-02T10:53:25;12.30;;;10.88;;
20207;SDS011;10263;48.716;8.760;2023-05-02T10:56:10;11.55;;;9.93;;
20207;SDS011;10263;48.716;8.760;2023-05-02T10:58:41;11.55;;;10.45;;
20207;SDS011;10263;48.716;8.760;2023-05-02T11:04:01;10.63;;;9.63;;
20207;SDS011;10263;48.716;8.760;2023-05-02T11:06:30;10.82;;;9.73;;
20207;SDS011;10263;48.716;8.760;2023-05-02T11:11:56;12.63;;;11.32;;
20207;SDS011;10263;48.716;8.760;2023-05-02T11:17:14;11.95;;;10.75;;
20207;SDS011;10263;48.716;8.760;2023-05-02T11:22:51;11.60;;;10.50;;
20207;SDS011;10263;48.716;8.760;2023-05-02T11:25:35;11.55;;;10.13;;
20207;SDS011;10263;48.716;8.760;2023-05-02T11:28:05;11.90;;;10.80;;
20207;SDS011;10263;48.716;8.760;2023-05-02T11:30:43;11.00;;;9.90;;
20207;SDS011;10263;48.716;8.760;2023-05-02T11:33:14;11.52;;;10.25;;
20207;SDS011;10263;48.716;8.760;2023-05-02T11:35:43;11.75;;;10.57;;
20207;SDS011;10263;48.716;8.760;2023-05-02T11:38:11;10.57;;;9.52;;
20207;SDS011;10263;48.716;8.760;2023-05-02T11:40:39;11.15;;;10.00;;
20207;SDS011;10263;48.716;8.760;2023-05-02T11:43:14;11.88;;;9.90;;
20207;SDS011;10263;48.716;8.760;2023-05-02T11:45:43;10.65;;;9.52;;
20207;SDS011;10263;48.716;8.760;2023-05-02T11:48:11;11.57;;;10.38;;
20207;SDS011;10263;48.716;8.760;2023-05-02T11:50:43;11.10;;;9.85;;
20207;SDS011;10263;48.716;8.760;2023-05-02T11:53:11;11.10;;;9.88;;
20207;SDS011;10263;48.716;8.760;2023-05-02T11:55:43;9.80;;;8.80;;
20207;SDS011;10263;48.716;8.760;2023-05-02T11:58:12;11.75;;;10.55;;
20207;SDS011;10263;48.716;8.760;2023-05-02T12:00:40;9.60;;;8.70;;
20207;SDS011;10263;48.716;8.760;2023-05-02T12:03:17;9.77;;;8.82;;
20207;SDS011;10263;48.716;8.760;2023-05-02T12:05:47;10.45;;;9.43;;
20207;SDS011;10263;48.716;8.760;2023-05-02T12:08:18;12.15;;;10.93;;
20207;SDS011;10263;48.716;8.760;2023-05-02T12:10:45;12.40;;;11.18;;
20207;SDS011;10263;48.716;8.760;2023-05-02T12:13:13;10.88;;;9.82;;
20207;SDS011;10263;48.716;8.760;2023-05-02T12:15:40;9.98;;;9.02;;
20207;SDS011;10263;48.716;8.760;2023-05-02T12:18:07;10.20;;;9.18;;
20207;SDS011;10263;48.716;8.760;2023-05-02T12:20:35;12.13;;;10.93;;
20207;SDS011;10263;48.716;8.760;2023-05-02T12:23:04;12.20;;;11.00;;
20207;SDS011;10263;48.716;8.760;2023-05-02T12:25:35;14.63;;;11.90;;
20207;SDS011;10263;48.716;8.760;2023-05-02T12:28:03;13.02;;;11.73;;
20207;SDS011;10263;48.716;8.760;2023-05-02T12:30:30;12.70;;;11.40;;
20207;SDS011;10263;48.716;8.760;2023-05-02T12:32:58;13.48;;;12.15;;
20207;SDS011;10263;48.716;8.760;2023-05-02T12:35:26;13.55;;;12.15;;
20207;SDS011;10263;48.716;8.760;2023-05-02T12:37:54;13.63;;;12.40;;
20207;SDS011;10263;48.716;8.760;2023-05-02T12:40:36;13.30;;;11.90;;
20207;SDS011;10263;48.716;8.760;2023-05-02T12:43:04;14.82;;;12.90;;
20207;SDS011;10263;48.716;8.760;2023-05-02T12:45:34;14.65;;;13.25;;
20207;SDS011;10263;48.716;8.760;2023-05-02T12:48:02;15.18;;;13.77;;
20207;SDS011;10263;48.716;8.760;2023-05-02T12:50:42;16.05;;;14.43;;
20207;SDS011;10263;48.716;8.760;2023-05-02T12:53:10;16.05;;;14.55;;
20207;SDS011;10263;48.716;8.760;2023-05-02T12:55:37;15.93;;;14.43;;
20207;SDS011;10263;48.716;8.760;2023-05-02T12:58:05;14.80;;;13.40;;
20207;SDS011;10263;48.716;8.760;2023-05-02T13:00:33;15.63;;;14.13;;
20207;SDS011;10263;48.716;8.760;2023-05-02T13:03:02;15.75;;;14.15;;
20207;SDS011;10263;48.716;8.760;2023-05-02T13:05:29;14.23;;;12.73;;
20207;SDS011;10263;48.716;8.760;2023-05-02T13:07:56;15.38;;;13.88;;
20207;SDS011;10263;48.716;8.760;2023-05-02T13:10:24;13.02;;;11.80;;
20207;SDS011;10263;48.716;8.760;2023-05-02T13:12:52;12.65;;;11.40;;
20207;SDS011;10263;48.716;8.760;2023-05-02T13:15:19;12.55;;;11.35;;
20207;SDS011;10263;48.716;8.760;2023-05-02T13:17:46;11.10;;;10.02;;
20207;SDS011;10263;48.716;8.760;2023-05-02T13:20:15;10.73;;;9.60;;
20207;SDS011;10263;48.716;8.760;2023-05-02T13:22:41;10.82;;;9.82;;
20207;SDS011;10263;48.716;8.760;2023-05-02T13:25:08;10.88;;;9.88;;
20207;SDS011;10263;48.716;8.760;2023-05-02T13:27:37;11.38;;;10.27;;
20207;SDS011;10263;48.716;8.760;2023-05-02T13:30:06;10.88;;;9.77;;
20207;SDS011;10263;48.716;8.760;2023-05-02T13:32:34;12.13;;;10.93;;
20207;SDS011;10263;48.716;8.760;2023-05-02T13:35:01;12.27;;;10.98;;
20207;SDS011;10263;48.716;8.760;2023-05-02T13:37:28;11.70;;;10.60;;
20207;SDS011;10263;48.716;8.760;2023-05-02T13:39:55;11.18;;;10.10;;
20207;SDS011;10263;48.716;8.760;2023-05-02T13:42:22;10.63;;;9.52;;
20207;SDS011;10263;48.716;8.760;2023-05-02T13:44:51;11.65;;;9.57;;
20207;SDS011;10263;48.716;8.760;2023-05-02T13:47:18;10.70;;;9.60;;
20207;SDS011;10263;48.716;8.760;2023-05-02T13:49:45;9.48;;;8.55;;
20207;SDS011;10263;48.716;8.760;2023-05-02T13:52:12;12.82;;;9.90;;
20207;SDS011;10263;48.716;8.760;2023-05-02T13:54:39;10.18;;;9.20;;
20207;SDS011;10263;48.716;8.760;2023-05-02T13:57:06;10.70;;;9.50;;
20207;SDS011;10263;48.716;8.760;2023-05-02T13:59:32;11.20;;;8.95;;
20207;SDS011;10263;48.716;8.760;2023-05-02T14:02:00;10.15;;;9.15;;
20207;SDS011;10263;48.716;8.760;2023-05-02T14:04:27;9.88;;;8.85;;
20207;SDS011;10263;48.716;8.760;2023-05-02T14:06:54;8.57;;;7.78;;
20207;SDS011;10263;48.716;8.760;2023-05-02T14:09:21;9.38;;;7.30;;
20207;SDS011;10263;48.716;8.760;2023-05-02T14:11:48;8.10;;;7.30;;
20207;SDS011;10263;48.716;8.760;2023-05-02T14:14:14;8.70;;;7.80;;
20207;SDS011;10263;48.716;8.760;2023-05-02T14:16:41;7.75;;;6.82;;
20207;SDS011;10263;48.716;8.760;2023-05-02T14:19:09;6.35;;;5.78;;
20207;SDS011;10263;48.716;8.760;2023-05-02T14:21:36;7.25;;;6.55;;
20207;SDS011;10263;48.716;8.760;2023-05-02T14:24:03;7.95;;;6.47;;
20207;SDS011;10263;48.716;8.760;2023-05-02T14:26:31;8.02;;;7.00;;
20207;SDS011;10263;48.716;8.760;2023-05-02T14:28:58;8.85;;;6.70;;
20207;SDS011;10263;48.716;8.760;2023-05-02T14:31:25;7.50;;;6.70;;
20207;SDS011;10263;48.716;8.760;2023-05-02T14:33:52;8.60;;;7.40;;
20207;SDS011;10263;48.716;8.760;2023-05-02T14:36:20;7.43;;;6.72;;
20207;SDS011;10263;48.716;8.760;2023-05-02T14:38:47;9.02;;;7.00;;
20207;SDS011;10263;48.716;8.760;2023-05-02T14:41:14;8.07;;;7.28;;
20207;SDS011;10263;48.716;8.760;2023-05-02T14:43:41;11.82;;;6.20;;
20207;SDS011;10263;48.716;8.760;2023-05-02T14:46:08;8.82;;;6.57;;
20207;SDS011;10263;48.716;8.760;2023-05-02T14:48:34;6.03;;;5.43;;
20207;SDS011;10263;48.716;8.760;2023-05-02T14:51:02;6.50;;;5.00;;
20207;SDS011;10263;48.716;8.760;2023-05-02T14:53:30;6.03;;;5.28;;
20207;SDS011;10263;48.716;8.760;2023-05-02T14:55:57;6.25;;;5.18;;
20207;SDS011;10263;48.716;8.760;2023-05-02T14:58:24;5.65;;;4.53;;